createdAt,value
2022-10-13T00:02:44.659Z,12.20
2022-10-13T00:06:45.925Z,12.10
2022-10-13T00:10:49.724Z,12.10
2022-10-13T00:14:50.898Z,12.10
2022-10-13T00:18:52.091Z,12.10
2022-10-13T00:22:53.279Z,12.00
2022-10-13T00:26:54.764Z,11.90
2022-10-13T00:30:56.230Z,11.80
2022-10-13T00:34:57.447Z,11.70
2022-10-13T00:38:58.667Z,11.70
2022-10-13T00:43:09.060Z,11.80
2022-10-13T00:47:19.755Z,11.90
2022-10-13T00:51:28.813Z,11.90
2022-10-13T00:55:35.849Z,11.90
2022-10-13T00:59:38.555Z,11.90
2022-10-13T01:03:39.830Z,11.90
2022-10-13T01:07:40.933Z,11.90
2022-10-13T01:12:01.301Z,12.00
2022-10-13T01:16:18.518Z,12.00
2022-10-13T01:20:49.162Z,12.00
2022-10-13T01:25:08.683Z,12.00
2022-10-13T01:29:16.762Z,12.00
2022-10-13T01:33:21.682Z,12.00
2022-10-13T01:37:35.234Z,11.90
2022-10-13T01:41:39.440Z,11.90
2022-10-13T01:45:44.455Z,11.90
2022-10-13T01:49:46.749Z,12.00
2022-10-13T01:53:49.042Z,12.00
2022-10-13T01:57:50.220Z,12.10
2022-10-13T02:02:07.772Z,12.10
2022-10-13T02:06:15.759Z,12.10
2022-10-13T02:10:30.042Z,12.00
2022-10-13T02:14:34.436Z,12.00
2022-10-13T02:18:36.327Z,12.00
2022-10-13T02:22:44.361Z,11.90
2022-10-13T02:26:46.075Z,12.00
2022-10-13T02:30:48.215Z,11.90
2022-10-13T02:34:50.215Z,11.90
2022-10-13T02:38:51.394Z,12.00
2022-10-13T02:42:52.576Z,12.10
2022-10-13T02:46:53.654Z,12.20
2022-10-13T02:50:54.723Z,12.20
2022-10-13T02:54:55.937Z,12.20
2022-10-13T02:58:57.123Z,12.20
2022-10-13T03:02:58.623Z,12.10
2022-10-13T03:06:59.825Z,12.00
2022-10-13T03:11:01.510Z,12.00
2022-10-13T03:15:03.327Z,11.90
2022-10-13T03:19:04.526Z,11.90
2022-10-13T03:23:06.517Z,12.00
2022-10-13T03:27:08.189Z,11.90
2022-10-13T03:31:11.079Z,11.90
2022-10-13T03:35:12.477Z,12.00
2022-10-13T03:39:13.569Z,12.20
2022-10-13T03:43:14.665Z,12.20
2022-10-13T03:47:15.771Z,12.40
2022-10-13T03:51:19.071Z,12.50
2022-10-13T03:55:20.140Z,12.50
2022-10-13T03:59:21.241Z,12.60
2022-10-13T04:03:23.832Z,12.60
2022-10-13T04:07:25.025Z,12.60
2022-10-13T04:11:26.127Z,12.60
2022-10-13T04:15:27.230Z,12.50
2022-10-13T04:19:28.331Z,12.70
2022-10-13T04:23:29.517Z,12.70
2022-10-13T04:27:30.614Z,12.60
2022-10-13T04:31:32.307Z,12.70
2022-10-13T04:35:33.798Z,12.80
2022-10-13T04:39:34.989Z,12.70
2022-10-13T04:43:36.376Z,12.70
2022-10-13T04:47:38.970Z,12.70
2022-10-13T04:51:40.068Z,12.80
2022-10-13T04:55:41.146Z,12.70
2022-10-13T04:59:42.239Z,12.70
2022-10-13T05:03:43.423Z,12.70
2022-10-13T05:07:44.528Z,12.70
2022-10-13T05:11:45.732Z,12.70
2022-10-13T05:15:47.233Z,12.70
2022-10-13T05:19:49.005Z,12.70
2022-10-13T05:23:52.425Z,12.80
2022-10-13T05:27:53.498Z,12.80
2022-10-13T05:31:54.600Z,12.80
2022-10-13T05:35:59.502Z,12.70
2022-10-13T05:40:00.905Z,12.70
2022-10-13T05:44:05.564Z,12.70
2022-10-13T05:48:06.737Z,12.60
2022-10-13T05:52:11.631Z,12.60
2022-10-13T05:56:16.636Z,12.80
2022-10-13T06:00:19.239Z,12.70
2022-10-13T06:04:24.287Z,12.80
2022-10-13T06:08:25.779Z,12.90
2022-10-13T06:12:26.967Z,12.90
2022-10-13T06:16:28.039Z,13.00
2022-10-13T06:20:29.156Z,13.00
2022-10-13T06:24:30.539Z,12.80
2022-10-13T06:28:31.765Z,12.60
2022-10-13T06:32:33.055Z,12.50
2022-10-13T06:36:34.234Z,12.50
2022-10-13T06:40:35.348Z,12.50
2022-10-13T06:44:36.526Z,12.60
2022-10-13T06:48:37.917Z,12.70
2022-10-13T06:52:39.094Z,12.90
2022-10-13T06:56:40.290Z,13.00
2022-10-13T07:00:41.885Z,13.10
2022-10-13T07:04:43.083Z,13.30
2022-10-13T07:08:44.457Z,13.40
2022-10-13T07:12:45.981Z,13.50
2022-10-13T07:16:47.954Z,13.60
2022-10-13T07:20:49.051Z,13.70
2022-10-13T07:24:50.227Z,13.80
2022-10-13T07:28:52.395Z,13.90
2022-10-13T07:32:53.709Z,14.10
2022-10-13T07:36:54.824Z,14.30
2022-10-13T07:40:57.927Z,14.40
2022-10-13T07:44:59.123Z,14.60
2022-10-13T07:49:00.214Z,14.60
2022-10-13T07:53:01.762Z,14.70
2022-10-13T07:57:03.019Z,14.80
2022-10-13T08:01:04.654Z,14.80
2022-10-13T08:05:06.137Z,14.90
2022-10-13T08:09:08.732Z,15.00
2022-10-13T08:13:11.309Z,14.80
2022-10-13T08:17:12.392Z,14.90
2022-10-13T08:21:45.732Z,15.20
2022-10-13T08:25:19.883Z,15.20
2022-10-13T08:29:22.866Z,15.30
2022-10-13T08:33:25.356Z,15.10
2022-10-13T08:37:26.461Z,15.10
2022-10-13T08:41:39.920Z,15.20
2022-10-13T08:45:42.334Z,14.90
2022-10-13T08:49:45.494Z,14.80
2022-10-13T08:53:48.191Z,15.00
2022-10-13T08:57:49.483Z,15.10
2022-10-13T09:01:54.955Z,15.20
2022-10-13T09:06:12.059Z,15.30
2022-10-13T09:10:14.762Z,15.20
2022-10-13T09:14:26.604Z,15.30
2022-10-13T09:18:31.169Z,15.40
2022-10-13T09:22:36.867Z,14.90
2022-10-13T09:26:38.664Z,14.50
2022-10-13T09:30:41.972Z,15.10
2022-10-13T09:34:43.075Z,14.80
2022-10-13T09:38:47.973Z,15.10
2022-10-13T09:42:52.074Z,15.30
2022-10-13T09:46:56.466Z,15.00
2022-10-13T09:50:58.534Z,14.80
2022-10-13T09:55:00.302Z,14.50
2022-10-13T09:59:23.267Z,14.50
2022-10-13T10:03:31.617Z,14.60
2022-10-13T10:07:33.310Z,14.70
2022-10-13T10:11:38.327Z,14.90
2022-10-13T10:15:51.950Z,14.90
2022-10-13T10:19:57.068Z,14.90
2022-10-13T10:24:18.959Z,15.20
2022-10-13T10:28:36.358Z,15.10
2022-10-13T10:33:02.899Z,14.90
2022-10-13T10:37:22.785Z,14.50
2022-10-13T10:41:42.235Z,14.60
2022-10-13T10:45:45.436Z,14.50
2022-10-13T10:49:47.431Z,14.50
2022-10-13T10:54:04.333Z,14.40
2022-10-13T10:58:24.124Z,14.10
2022-10-13T11:02:52.209Z,14.60
2022-10-13T11:06:53.465Z,14.40
2022-10-13T11:11:26.710Z,14.30
2022-10-13T11:15:40.527Z,14.60
2022-10-13T11:19:41.693Z,15.00
2022-10-13T11:23:47.563Z,15.60
2022-10-13T11:27:48.885Z,16.00
2022-10-13T11:31:54.508Z,16.00
2022-10-13T11:35:56.495Z,16.20
2022-10-13T11:40:04.089Z,16.60
2022-10-13T11:44:19.132Z,16.50
2022-10-13T11:48:59.808Z,16.10
2022-10-13T11:53:16.709Z,16.10
2022-10-13T11:57:21.407Z,15.90
2022-10-13T12:01:22.485Z,16.20
2022-10-13T12:05:26.822Z,16.40
2022-10-13T12:09:30.809Z,16.60
2022-10-13T12:13:33.325Z,16.70
2022-10-13T12:17:35.320Z,16.30
2022-10-13T12:21:40.283Z,16.70
2022-10-13T12:25:45.261Z,16.80
2022-10-13T12:29:46.781Z,17.00
2022-10-13T12:33:53.269Z,17.10
2022-10-13T12:37:55.568Z,17.00
2022-10-13T12:41:58.561Z,17.20
2022-10-13T12:45:59.776Z,17.40
2022-10-13T12:50:21.969Z,17.30
2022-10-13T12:54:26.709Z,17.40
2022-10-13T12:58:30.999Z,17.60
2022-10-13T13:02:32.710Z,17.40
2022-10-13T13:06:36.859Z,17.30
2022-10-13T13:10:41.852Z,17.60
2022-10-13T13:14:47.470Z,17.10
2022-10-13T13:18:50.163Z,17.10
2022-10-13T13:22:51.357Z,16.90
2022-10-13T13:26:52.936Z,17.10
2022-10-13T13:30:54.040Z,17.30
2022-10-13T13:34:55.150Z,17.40
2022-10-13T13:38:56.331Z,17.40
2022-10-13T13:42:57.420Z,17.30
2022-10-13T13:46:58.607Z,17.20
2022-10-13T13:51:00.036Z,17.20
2022-10-13T13:55:01.118Z,17.40
2022-10-13T13:59:02.300Z,17.70
2022-10-13T14:03:04.096Z,18.10
2022-10-13T14:07:05.298Z,18.00
2022-10-13T14:11:06.901Z,17.90
2022-10-13T14:15:09.345Z,17.80
2022-10-13T14:19:10.633Z,17.70
2022-10-13T14:23:11.826Z,17.50
2022-10-13T14:27:12.950Z,17.30
2022-10-13T14:31:14.550Z,17.20
2022-10-13T14:35:15.906Z,17.30
2022-10-13T14:39:17.186Z,17.10
2022-10-13T14:43:18.442Z,17.30
2022-10-13T14:47:19.889Z,17.40
2022-10-13T14:51:21.304Z,17.70
2022-10-13T14:55:22.492Z,17.50
2022-10-13T14:59:23.605Z,17.70
2022-10-13T15:03:26.719Z,17.90
2022-10-13T15:07:29.159Z,17.80
2022-10-13T15:11:30.367Z,17.80
2022-10-13T15:15:32.771Z,17.50
2022-10-13T15:19:34.014Z,17.50
2022-10-13T15:23:35.272Z,17.60
2022-10-13T15:27:41.891Z,17.40
2022-10-13T15:31:43.061Z,17.20
2022-10-13T15:35:49.893Z,17.30
2022-10-13T15:39:56.070Z,17.20
2022-10-13T15:43:53.964Z,17.20
2022-10-13T15:47:56.969Z,17.10
2022-10-13T15:51:58.235Z,17.10
2022-10-13T15:56:01.858Z,17.20
2022-10-13T16:00:05.800Z,17.30
2022-10-13T16:04:06.988Z,17.10
2022-10-13T16:08:08.277Z,17.10
2022-10-13T16:12:09.765Z,17.20
2022-10-13T16:16:11.161Z,17.20
2022-10-13T16:20:12.255Z,17.00
2022-10-13T16:24:13.471Z,17.00
2022-10-13T16:28:14.687Z,16.70
2022-10-13T16:32:15.963Z,16.60
2022-10-13T16:36:18.742Z,16.40
2022-10-13T16:40:19.840Z,16.50
2022-10-13T16:44:21.125Z,16.50
2022-10-13T16:48:22.563Z,16.60
2022-10-13T16:52:23.740Z,16.70
2022-10-13T16:56:26.661Z,16.70
2022-10-13T17:00:27.912Z,16.70
2022-10-13T17:04:30.153Z,16.60
2022-10-13T17:08:31.449Z,16.50
2022-10-13T17:12:33.140Z,16.60
2022-10-13T17:16:35.246Z,16.60
2022-10-13T17:20:36.438Z,16.30
2022-10-13T17:24:37.642Z,15.90
2022-10-13T17:28:39.594Z,15.60
2022-10-13T17:32:40.905Z,15.60
2022-10-13T17:36:41.995Z,15.50
2022-10-13T17:40:43.181Z,15.60
2022-10-13T17:44:44.394Z,15.60
2022-10-13T17:48:45.681Z,15.70
2022-10-13T17:52:46.770Z,15.80
2022-10-13T17:56:48.654Z,15.80
2022-10-13T18:01:12.004Z,16.00
2022-10-13T18:04:53.346Z,16.20
2022-10-13T18:08:54.444Z,16.20
2022-10-13T18:12:55.609Z,16.10
2022-10-13T18:16:56.713Z,16.20
2022-10-13T18:21:00.687Z,16.30
2022-10-13T18:25:01.792Z,16.20
2022-10-13T18:29:06.193Z,16.10
2022-10-13T18:33:07.307Z,16.10
2022-10-13T18:37:09.099Z,16.20
2022-10-13T18:41:10.287Z,16.20
2022-10-13T18:45:11.517Z,16.20
2022-10-13T18:49:14.426Z,16.20
2022-10-13T18:53:15.603Z,16.20
2022-10-13T18:57:16.798Z,15.90
2022-10-13T19:01:21.018Z,15.50
2022-10-13T19:05:22.188Z,15.50
2022-10-13T19:09:24.884Z,15.40
2022-10-13T19:13:27.081Z,15.60
2022-10-13T19:17:28.260Z,15.40
2022-10-13T19:21:29.665Z,15.40
2022-10-13T19:25:30.946Z,15.40
2022-10-13T19:29:34.047Z,15.70
2022-10-13T19:33:35.543Z,15.80
2022-10-13T19:37:37.325Z,15.80
2022-10-13T19:41:38.714Z,15.70
2022-10-13T19:45:50.925Z,15.70
2022-10-13T19:49:52.591Z,15.40
2022-10-13T19:53:53.691Z,15.30
2022-10-13T19:57:54.797Z,15.40
2022-10-13T20:01:56.787Z,15.40
2022-10-13T20:05:57.994Z,15.30
2022-10-13T20:09:59.170Z,15.40
2022-10-13T20:14:00.535Z,15.20
2022-10-13T20:18:01.619Z,15.40
2022-10-13T20:22:02.803Z,15.40
2022-10-13T20:26:05.990Z,15.50
2022-10-13T20:30:07.971Z,15.50
2022-10-13T20:34:09.666Z,15.40
2022-10-13T20:38:10.858Z,15.30
2022-10-13T20:42:13.524Z,15.20
2022-10-13T20:46:16.325Z,15.30
2022-10-13T20:50:17.489Z,15.30
2022-10-13T20:54:18.587Z,15.30
2022-10-13T20:58:19.655Z,15.00
2022-10-13T21:02:20.777Z,14.90
2022-10-13T21:06:23.865Z,15.10
2022-10-13T21:10:25.158Z,14.90
2022-10-13T21:14:26.353Z,14.80
2022-10-13T21:18:27.451Z,14.90
2022-10-13T21:22:28.623Z,14.80
2022-10-13T21:26:31.025Z,14.80
2022-10-13T21:30:32.983Z,14.80
2022-10-13T21:34:34.184Z,15.00
2022-10-13T21:38:35.754Z,15.00
2022-10-13T21:42:36.944Z,15.10
2022-10-13T21:46:38.107Z,14.90
2022-10-13T21:50:39.271Z,14.90
2022-10-13T21:54:40.859Z,14.80
2022-10-13T21:58:42.274Z,14.80
2022-10-13T22:02:43.453Z,14.90
2022-10-13T22:06:44.751Z,14.90
2022-10-13T22:10:45.932Z,14.80
2022-10-13T22:14:47.165Z,15.00
2022-10-13T22:18:51.242Z,15.00
2022-10-13T22:22:52.547Z,14.90
2022-10-13T22:26:53.843Z,15.10
2022-10-13T22:30:55.022Z,15.20
2022-10-13T22:34:56.197Z,15.30
2022-10-13T22:39:00.568Z,15.20
2022-10-13T22:43:01.759Z,15.20
2022-10-13T22:47:02.886Z,15.20
2022-10-13T22:51:05.142Z,15.20
2022-10-13T22:55:07.427Z,15.30
2022-10-13T22:59:08.984Z,15.40
2022-10-13T23:03:12.902Z,15.50
2022-10-13T23:07:14.227Z,15.60
2022-10-13T23:11:16.727Z,15.60
2022-10-13T23:15:17.900Z,15.70
2022-10-13T23:19:20.114Z,15.70
2022-10-13T23:23:21.354Z,15.70
2022-10-13T23:27:23.003Z,15.50
2022-10-13T23:31:25.922Z,15.40
2022-10-13T23:35:27.178Z,15.30
2022-10-13T23:39:28.983Z,15.30
2022-10-13T23:43:30.181Z,15.40
2022-10-13T23:47:31.274Z,15.40
2022-10-13T23:51:32.349Z,15.40
2022-10-13T23:55:38.444Z,15.40
2022-10-13T23:59:39.609Z,15.40
